createdAt,value
2019-02-14T00:01:16.199Z,101771.39
2019-02-14T00:03:46.642Z,101782.80
2019-02-14T00:06:17.441Z,101774.85
2019-02-14T00:08:47.888Z,101780.59
2019-02-14T00:11:18.331Z,101784.55
2019-02-14T00:13:48.903Z,101799.44
2019-02-14T00:16:19.376Z,101805.50
2019-02-14T00:18:50.778Z,101805.53
2019-02-14T00:21:22.041Z,101802.56
2019-02-14T00:23:52.486Z,101796.49
2019-02-14T00:26:22.935Z,101795.94
2019-02-14T00:28:54.714Z,101785.34
2019-02-14T00:31:25.527Z,101793.05
2019-02-14T00:33:56.363Z,101796.09
2019-02-14T00:36:26.850Z,101793.80
2019-02-14T00:38:57.377Z,101789.33
2019-02-14T00:41:28.223Z,101802.87
2019-02-14T00:43:58.724Z,101796.11
2019-02-14T00:46:29.170Z,101785.60
2019-02-14T00:48:59.965Z,101786.59
2019-02-14T00:51:30.775Z,101779.54
2019-02-14T00:54:01.222Z,101791.16
2019-02-14T00:56:32.446Z,101796.78
2019-02-14T00:59:03.271Z,101789.39
2019-02-14T01:01:33.719Z,101781.12
2019-02-14T01:04:04.157Z,101776.44
2019-02-14T01:06:34.655Z,101773.46
2019-02-14T01:09:06.595Z,101773.88
2019-02-14T01:11:37.035Z,101779.64
2019-02-14T01:14:07.538Z,101774.45
2019-02-14T01:16:38.010Z,101782.73
2019-02-14T01:19:08.462Z,101783.39
2019-02-14T01:21:38.969Z,101778.77
2019-02-14T01:24:09.738Z,101785.59
2019-02-14T01:26:40.562Z,101781.99
2019-02-14T01:29:11.070Z,101781.99
2019-02-14T01:31:41.513Z,101783.72
2019-02-14T01:34:11.967Z,101779.67
2019-02-14T01:36:42.484Z,101781.91
2019-02-14T01:39:13.239Z,101761.63
2019-02-14T01:41:44.005Z,101768.77
2019-02-14T01:44:14.507Z,101777.77
2019-02-14T01:46:45.650Z,101772.95
2019-02-14T01:49:16.123Z,101768.91
2019-02-14T01:51:46.615Z,101768.98
2019-02-14T01:54:17.064Z,101771.71
2019-02-14T01:56:48.190Z,101773.11
2019-02-14T01:59:18.691Z,101780.97
2019-02-14T02:01:49.489Z,101783.61
2019-02-14T02:04:20.294Z,101789.42
2019-02-14T02:06:51.134Z,101791.55
2019-02-14T02:09:21.574Z,101790.89
2019-02-14T02:11:52.015Z,101782.81
2019-02-14T02:14:22.521Z,101781.49
2019-02-14T02:16:53.560Z,101791.63
2019-02-14T02:19:24.024Z,101785.94
2019-02-14T02:21:54.496Z,101791.63
2019-02-14T02:24:24.957Z,101789.65
2019-02-14T02:26:55.565Z,101793.80
2019-02-14T02:29:26.071Z,101793.88
2019-02-14T02:31:56.899Z,101791.16
2019-02-14T02:34:27.351Z,101790.13
2019-02-14T02:36:57.840Z,101775.25
2019-02-14T02:39:28.307Z,101783.95
2019-02-14T02:41:59.133Z,101778.34
2019-02-14T02:44:29.643Z,101774.62
2019-02-14T02:47:00.089Z,101782.70
2019-02-14T02:49:30.527Z,101790.23
2019-02-14T02:52:01.753Z,101790.90
2019-02-14T02:54:32.186Z,101789.84
2019-02-14T02:57:03.150Z,101800.89
2019-02-14T02:59:33.669Z,101796.33
2019-02-14T03:02:04.115Z,101796.81
2019-02-14T03:04:34.562Z,101788.66
2019-02-14T03:07:05.494Z,101788.14
2019-02-14T03:09:36.225Z,101782.70
2019-02-14T03:12:06.671Z,101771.21
2019-02-14T03:14:37.471Z,101763.68
2019-02-14T03:17:08.794Z,101773.64
2019-02-14T03:19:39.556Z,101787.08
2019-02-14T03:22:10.037Z,101785.28
2019-02-14T03:24:40.487Z,101778.30
2019-02-14T03:27:10.941Z,101776.57
2019-02-14T03:29:41.450Z,101781.86
2019-02-14T03:32:12.310Z,101775.95
2019-02-14T03:34:43.134Z,101789.32
2019-02-14T03:37:13.625Z,101785.69
2019-02-14T03:39:44.402Z,101791.19
2019-02-14T03:42:14.847Z,101794.47
2019-02-14T03:44:45.324Z,101782.27
2019-02-14T03:47:15.767Z,101792.84
2019-02-14T03:49:46.635Z,101795.53
2019-02-14T03:52:17.080Z,101799.83
2019-02-14T03:54:47.518Z,101797.11
2019-02-14T03:57:18.874Z,101795.27
2019-02-14T03:59:49.314Z,101796.19
2019-02-14T04:02:20.574Z,101795.27
2019-02-14T04:04:51.024Z,101799.70
2019-02-14T04:07:21.474Z,101799.45
2019-02-14T04:09:52.914Z,101796.48
2019-02-14T04:12:23.711Z,101794.42
2019-02-14T04:14:54.474Z,101800.81
2019-02-14T04:17:24.921Z,101802.75
2019-02-14T04:19:55.395Z,101806.91
2019-02-14T04:22:25.870Z,101807.91
2019-02-14T04:24:56.947Z,101807.43
2019-02-14T04:27:27.673Z,101814.26
2019-02-14T04:29:58.129Z,101811.47
2019-02-14T04:32:28.953Z,101808.83
2019-02-14T04:34:59.443Z,101814.62
2019-02-14T04:37:29.889Z,101820.28
2019-02-14T04:40:00.386Z,101808.71
2019-02-14T04:42:31.426Z,101805.26
2019-02-14T04:45:02.049Z,101797.73
2019-02-14T04:47:32.683Z,101800.16
2019-02-14T04:50:03.494Z,101800.81
2019-02-14T04:52:33.978Z,101811.20
2019-02-14T04:55:05.069Z,101802.27
2019-02-14T04:57:35.958Z,101798.31
2019-02-14T05:00:07.290Z,101809.16
2019-02-14T05:02:38.208Z,101797.20
2019-02-14T05:05:08.878Z,101804.86
2019-02-14T05:07:39.328Z,101809.52
2019-02-14T05:10:09.884Z,101802.87
2019-02-14T05:12:40.357Z,101809.86
2019-02-14T05:15:10.941Z,101801.33
2019-02-14T05:17:41.944Z,101790.48
2019-02-14T05:20:12.400Z,101785.09
2019-02-14T05:22:42.851Z,101795.33
2019-02-14T05:25:13.324Z,101792.22
2019-02-14T05:27:43.787Z,101807.49
2019-02-14T05:30:14.470Z,101802.38
2019-02-14T05:32:45.216Z,101801.73
2019-02-14T05:35:16.043Z,101804.78
2019-02-14T05:37:47.100Z,101796.13
2019-02-14T05:40:17.838Z,101799.17
2019-02-14T05:42:48.614Z,101794.95
2019-02-14T05:45:19.435Z,101799.83
2019-02-14T05:47:50.007Z,101795.84
2019-02-14T05:50:20.503Z,101805.02
2019-02-14T05:52:50.956Z,101820.48
2019-02-14T05:55:21.810Z,101826.58
2019-02-14T05:57:52.274Z,101817.08
2019-02-14T06:00:23.036Z,101808.27
2019-02-14T06:02:53.510Z,101824.98
2019-02-14T06:05:23.965Z,101818.38
2019-02-14T06:07:55.086Z,101826.30
2019-02-14T06:10:25.889Z,101828.47
2019-02-14T06:12:56.365Z,101828.41
2019-02-14T06:15:26.839Z,101836.09
2019-02-14T06:17:57.302Z,101834.98
2019-02-14T06:20:28.797Z,101844.16
2019-02-14T06:22:59.246Z,101848.77
2019-02-14T06:25:29.706Z,101848.56
2019-02-14T06:28:00.170Z,101847.58
2019-02-14T06:30:30.615Z,101853.98
2019-02-14T06:33:01.402Z,101851.14
2019-02-14T06:35:31.851Z,101847.52
2019-02-14T06:38:03.031Z,101844.88
2019-02-14T06:40:33.521Z,101851.61
2019-02-14T06:43:03.962Z,101849.84
2019-02-14T06:45:34.782Z,101867.73
2019-02-14T06:48:05.227Z,101874.08
2019-02-14T06:50:35.673Z,101875.09
2019-02-14T06:53:06.157Z,101884.88
2019-02-14T06:55:36.607Z,101899.49
2019-02-14T06:58:08.064Z,101894.84
2019-02-14T07:00:38.844Z,101880.31
2019-02-14T07:03:09.675Z,101892.34
2019-02-14T07:05:40.415Z,101874.34
2019-02-14T07:08:11.297Z,101883.73
2019-02-14T07:10:41.791Z,101870.79
2019-02-14T07:13:12.246Z,101870.00
2019-02-14T07:15:42.693Z,101868.48
2019-02-14T07:18:13.489Z,101864.20
2019-02-14T07:20:43.943Z,101866.11
2019-02-14T07:23:15.087Z,101867.36
2019-02-14T07:25:45.530Z,101876.88
2019-02-14T07:28:16.158Z,101881.79
2019-02-14T07:30:46.646Z,101867.81
2019-02-14T07:33:17.089Z,101863.70
2019-02-14T07:35:48.050Z,101877.47
2019-02-14T07:38:18.497Z,101886.66
2019-02-14T07:40:48.943Z,101890.55
2019-02-14T07:43:19.414Z,101887.25
2019-02-14T07:45:49.869Z,101878.98
2019-02-14T07:48:21.732Z,101878.44
2019-02-14T07:50:52.181Z,101881.23
2019-02-14T07:53:22.631Z,101885.72
2019-02-14T07:55:53.106Z,101887.97
2019-02-14T07:58:24.697Z,101895.47
2019-02-14T08:00:55.655Z,101901.20
2019-02-14T08:03:26.371Z,101905.77
2019-02-14T08:05:56.834Z,101904.66
2019-02-14T08:08:27.311Z,101894.59
2019-02-14T08:10:57.753Z,101893.27
2019-02-14T08:13:28.257Z,101893.61
2019-02-14T08:15:58.698Z,101895.84
2019-02-14T08:18:29.142Z,101888.22
2019-02-14T08:20:59.634Z,101895.36
2019-02-14T08:23:30.113Z,101890.31
2019-02-14T08:26:00.611Z,101886.89
2019-02-14T08:28:31.059Z,101878.15
2019-02-14T08:31:01.530Z,101871.27
2019-02-14T08:33:32.045Z,101889.55
2019-02-14T08:36:02.876Z,101893.96
2019-02-14T08:38:33.383Z,101902.22
2019-02-14T08:41:04.215Z,101908.94
2019-02-14T08:43:34.654Z,101901.47
2019-02-14T08:46:05.137Z,101904.30
2019-02-14T08:48:35.583Z,101904.84
2019-02-14T08:51:06.087Z,101905.22
2019-02-14T08:53:36.618Z,101910.42
2019-02-14T08:56:07.065Z,101900.23
2019-02-14T08:58:37.850Z,101901.00
2019-02-14T09:01:08.681Z,101904.32
2019-02-14T09:03:39.522Z,101899.05
2019-02-14T09:06:10.011Z,101896.31
2019-02-14T09:08:40.455Z,101896.06
2019-02-14T09:11:10.914Z,101907.41
2019-02-14T09:13:41.404Z,101896.38
2019-02-14T09:16:11.847Z,101892.19
2019-02-14T09:18:42.306Z,101889.23
2019-02-14T09:21:12.802Z,101893.66
2019-02-14T09:23:43.272Z,101899.91
2019-02-14T09:26:13.723Z,101896.59
2019-02-14T09:28:44.570Z,101892.61
2019-02-14T09:31:15.307Z,101890.34
2019-02-14T09:33:45.737Z,101891.36
2019-02-14T09:36:16.490Z,101894.86
2019-02-14T09:38:46.949Z,101898.19
2019-02-14T09:41:17.374Z,101902.27
2019-02-14T09:43:48.238Z,101893.78
2019-02-14T09:46:18.679Z,101897.14
2019-02-14T09:48:49.115Z,101904.39
2019-02-14T09:51:19.620Z,101907.69
2019-02-14T09:53:50.046Z,101912.88
2019-02-14T09:56:20.496Z,101914.66
2019-02-14T09:58:51.990Z,101908.25
2019-02-14T10:01:22.892Z,101909.55
2019-02-14T10:03:53.666Z,101913.84
2019-02-14T10:06:24.141Z,101916.15
2019-02-14T10:08:54.587Z,101928.31
2019-02-14T10:11:25.056Z,101915.39
2019-02-14T10:13:55.881Z,101923.38
2019-02-14T10:16:26.727Z,101918.51
2019-02-14T10:18:57.272Z,101915.58
2019-02-14T10:21:28.618Z,101917.67
2019-02-14T10:23:59.084Z,101911.59
2019-02-14T10:26:29.540Z,101918.80
2019-02-14T10:29:00.029Z,101918.21
2019-02-14T10:31:30.487Z,101911.87
2019-02-14T10:34:00.904Z,101916.42
2019-02-14T10:36:31.391Z,101912.00
2019-02-14T10:39:01.838Z,101915.89
2019-02-14T10:41:32.272Z,101915.89
2019-02-14T10:44:03.139Z,101915.91
2019-02-14T10:46:35.677Z,101913.06
2019-02-14T10:49:05.718Z,101906.88
2019-02-14T10:51:36.279Z,101910.53
2019-02-14T10:54:06.722Z,101907.32
2019-02-14T10:56:37.567Z,101905.48
2019-02-14T10:59:08.037Z,101900.27
2019-02-14T11:01:38.484Z,101893.08
2019-02-14T11:04:08.934Z,101883.30
2019-02-14T11:06:39.499Z,101882.69
2019-02-14T11:09:10.040Z,101878.23
2019-02-14T11:11:40.480Z,101881.20
2019-02-14T11:14:10.960Z,101882.05
2019-02-14T11:16:41.394Z,101872.33
2019-02-14T11:19:11.836Z,101872.06
2019-02-14T11:21:42.715Z,101869.78
2019-02-14T11:24:13.186Z,101869.45
2019-02-14T11:26:43.626Z,101873.84
2019-02-14T11:29:14.109Z,101867.67
2019-02-14T11:31:44.941Z,101856.83
2019-02-14T11:34:15.382Z,101853.41
2019-02-14T11:36:46.209Z,101851.86
2019-02-14T11:39:16.645Z,101845.01
2019-02-14T11:41:47.079Z,101853.34
2019-02-14T11:44:17.574Z,101847.67
2019-02-14T11:46:51.467Z,101845.16
2019-02-14T11:49:20.571Z,101847.93
2019-02-14T11:51:51.489Z,101843.39
2019-02-14T11:54:21.906Z,101836.17
2019-02-14T11:56:52.732Z,101834.06
2019-02-14T11:59:23.666Z,101837.58
2019-02-14T12:01:55.559Z,101839.46
2019-02-14T12:04:26.213Z,101835.86
2019-02-14T12:06:56.706Z,101837.92
2019-02-14T12:09:27.149Z,101834.89
2019-02-14T12:11:57.867Z,101825.65
2019-02-14T12:14:28.349Z,101820.09
2019-02-14T12:16:58.794Z,101812.44
2019-02-14T12:19:29.232Z,101805.02
2019-02-14T12:22:00.043Z,101793.28
2019-02-14T12:24:30.517Z,101805.97
2019-02-14T12:27:01.355Z,101796.50
2019-02-14T12:29:31.843Z,101781.93
2019-02-14T12:32:02.287Z,101781.44
2019-02-14T12:34:33.389Z,101780.61
2019-02-14T12:37:03.869Z,101778.17
2019-02-14T12:39:34.321Z,101776.95
2019-02-14T12:42:04.757Z,101775.62
2019-02-14T12:44:35.243Z,101767.22
2019-02-14T12:47:05.684Z,101769.17
2019-02-14T12:49:36.128Z,101764.16
2019-02-14T12:52:06.613Z,101760.73
2019-02-14T12:54:37.049Z,101761.69
2019-02-14T12:57:07.495Z,101758.66
2019-02-14T12:59:38.382Z,101753.91
2019-02-14T13:02:09.185Z,101746.45
2019-02-14T13:04:39.619Z,101753.77
2019-02-14T13:07:10.286Z,101754.94
2019-02-14T13:09:41.075Z,101757.86
2019-02-14T13:12:11.852Z,101754.70
2019-02-14T13:14:42.338Z,101759.65
2019-02-14T13:17:13.394Z,101757.78
2019-02-14T13:19:43.835Z,101748.48
2019-02-14T13:22:14.710Z,101741.09
2019-02-14T13:24:45.206Z,101735.63
2019-02-14T13:27:15.980Z,101741.69
2019-02-14T13:29:46.461Z,101737.25
2019-02-14T13:32:16.897Z,101746.56
2019-02-14T13:34:47.337Z,101744.64
2019-02-14T13:37:17.824Z,101742.09
2019-02-14T13:39:48.633Z,101742.61
2019-02-14T13:42:19.596Z,101742.10
2019-02-14T13:44:50.159Z,101741.41
2019-02-14T13:47:20.599Z,101742.60
2019-02-14T13:49:51.445Z,101739.99
2019-02-14T13:52:21.931Z,101738.66
2019-02-14T13:54:52.740Z,101739.86
2019-02-14T13:57:23.186Z,101745.69
2019-02-14T13:59:54.022Z,101735.11
2019-02-14T14:02:24.467Z,101736.23
2019-02-14T14:04:54.930Z,101742.08
2019-02-14T14:07:25.401Z,101733.25
2019-02-14T14:09:55.847Z,101731.76
2019-02-14T14:12:26.285Z,101739.84
2019-02-14T14:14:56.929Z,101742.82
2019-02-14T14:17:27.375Z,101736.09
2019-02-14T14:19:57.819Z,101733.33
2019-02-14T14:22:28.301Z,101739.98
2019-02-14T14:24:59.127Z,101738.74
2019-02-14T14:27:29.586Z,101742.64
2019-02-14T14:30:00.079Z,101739.80
2019-02-14T14:32:30.929Z,101740.30
2019-02-14T14:35:02.068Z,101751.60
2019-02-14T14:37:32.655Z,101753.95
2019-02-14T14:40:03.605Z,101749.27
2019-02-14T14:43:02.558Z,101747.04
2019-02-14T14:45:53.227Z,101747.22
2019-02-14T14:48:25.034Z,101741.95
2019-02-14T14:50:55.470Z,101739.06
2019-02-14T14:53:25.921Z,101743.78
2019-02-14T14:55:56.425Z,101737.89
2019-02-14T14:58:27.037Z,101738.10
2019-02-14T15:00:57.750Z,101737.66
2019-02-14T15:03:28.287Z,101734.60
2019-02-14T15:05:58.694Z,101732.39
2019-02-14T15:08:29.520Z,101731.53
2019-02-14T15:11:00.005Z,101729.78
2019-02-14T15:13:30.455Z,101730.16
2019-02-14T15:16:00.913Z,101732.00
2019-02-14T15:18:31.393Z,101730.39
2019-02-14T15:21:01.847Z,101731.03
2019-02-14T15:23:33.063Z,101727.81
2019-02-14T15:26:04.963Z,101720.73
2019-02-14T15:28:37.475Z,101721.91
2019-02-14T15:31:08.293Z,101724.01
2019-02-14T15:33:38.796Z,101724.80
2019-02-14T15:36:09.899Z,101724.39
2019-02-14T15:38:40.442Z,101720.98
2019-02-14T15:41:10.940Z,101727.22
2019-02-14T15:43:41.393Z,101723.20
2019-02-14T15:46:11.853Z,101720.14
2019-02-14T15:48:42.677Z,101728.42
2019-02-14T15:51:13.121Z,101726.20
2019-02-14T15:53:46.182Z,101724.66
2019-02-14T15:56:16.386Z,101725.21
2019-02-14T15:58:47.199Z,101721.46
2019-02-14T16:01:19.010Z,101722.98
2019-02-14T16:03:49.636Z,101717.23
2019-02-14T16:06:20.080Z,101719.79
2019-02-14T16:08:50.761Z,101717.94
2019-02-14T16:11:22.370Z,101724.13
2019-02-14T16:13:54.540Z,101717.23
2019-02-14T16:16:25.337Z,101723.31
2019-02-14T16:18:55.831Z,101726.25
2019-02-14T16:21:27.791Z,101724.57
2019-02-14T16:23:58.915Z,101726.38
2019-02-14T16:26:29.445Z,101721.73
2019-02-14T16:29:02.044Z,101722.83
2019-02-14T16:31:33.325Z,101713.31
2019-02-14T16:34:03.822Z,101720.13
2019-02-14T16:36:34.271Z,101723.61
2019-02-14T16:39:05.688Z,101725.45
2019-02-14T16:41:36.530Z,101719.34
2019-02-14T16:44:06.973Z,101720.11
2019-02-14T16:46:37.425Z,101724.41
2019-02-14T16:49:07.910Z,101728.21
2019-02-14T16:51:38.347Z,101726.97
2019-02-14T16:54:09.192Z,101725.55
2019-02-14T16:56:39.684Z,101727.94
2019-02-14T16:59:10.131Z,101723.26
2019-02-14T17:01:40.990Z,101725.27
2019-02-14T17:04:11.934Z,101724.88
2019-02-14T17:06:42.409Z,101724.82
2019-02-14T17:09:12.864Z,101726.70
2019-02-14T17:11:43.353Z,101725.14
2019-02-14T17:14:13.830Z,101724.58
2019-02-14T17:16:44.289Z,101726.45
2019-02-14T17:19:15.509Z,101725.75
2019-02-14T17:21:45.984Z,101723.15
2019-02-14T17:24:16.419Z,101728.17
2019-02-14T17:26:47.296Z,101738.16
2019-02-14T17:29:17.766Z,101736.62
2019-02-14T17:31:48.220Z,101739.78
2019-02-14T17:34:18.880Z,101734.80
2019-02-14T17:36:49.346Z,101736.19
2019-02-14T17:39:20.205Z,101737.16
2019-02-14T17:41:52.125Z,101733.31
2019-02-14T17:44:22.585Z,101738.56
2019-02-14T17:46:53.396Z,101742.33
2019-02-14T17:49:23.886Z,101734.38
2019-02-14T17:51:54.340Z,101744.49
2019-02-14T17:54:25.151Z,101745.66
2019-02-14T17:56:55.649Z,101746.61
2019-02-14T17:59:26.084Z,101743.71
2019-02-14T18:01:57.000Z,101745.88
2019-02-14T18:04:27.492Z,101744.87
2019-02-14T18:06:58.933Z,101744.38
2019-02-14T18:09:29.709Z,101743.61
2019-02-14T18:12:00.601Z,101747.05
2019-02-14T18:14:31.045Z,101744.03
2019-02-14T18:17:01.563Z,101745.47
2019-02-14T18:19:32.061Z,101745.19
2019-02-14T18:22:02.531Z,101747.36
2019-02-14T18:24:33.851Z,101746.34
2019-02-14T18:27:04.364Z,101750.81
2019-02-14T18:29:35.217Z,101749.00
2019-02-14T18:32:06.004Z,101751.09
2019-02-14T18:34:36.971Z,101751.67
2019-02-14T18:37:07.417Z,101750.28
2019-02-14T18:39:37.848Z,101742.48
2019-02-14T18:42:09.001Z,101748.84
2019-02-14T18:44:41.148Z,101743.89
2019-02-14T18:47:12.022Z,101743.42
2019-02-14T18:49:42.543Z,101741.99
2019-02-14T18:52:14.293Z,101735.70
2019-02-14T18:54:44.728Z,101734.84
2019-02-14T18:57:15.218Z,101736.72
2019-02-14T18:59:46.128Z,101738.51
2019-02-14T19:02:16.674Z,101734.13
2019-02-14T19:04:47.719Z,101738.47
2019-02-14T19:07:18.169Z,101733.94
2019-02-14T19:09:48.940Z,101729.16
2019-02-14T19:12:21.527Z,101730.20
2019-02-14T19:14:53.701Z,101733.83
2019-02-14T19:17:24.170Z,101735.61
2019-02-14T19:19:55.007Z,101736.30
2019-02-14T19:22:25.455Z,101735.13
2019-02-14T19:24:55.927Z,101727.05
2019-02-14T19:27:27.843Z,101737.88
2019-02-14T19:29:58.303Z,101732.55
2019-02-14T19:32:28.744Z,101727.83
2019-02-14T19:34:59.237Z,101731.47
2019-02-14T19:37:30.069Z,101727.34
2019-02-14T19:40:00.501Z,101727.12
2019-02-14T19:42:31.750Z,101729.11
2019-02-14T19:45:03.203Z,101724.66
2019-02-14T19:47:41.340Z,101722.80
2019-02-14T19:50:11.891Z,101725.06
2019-02-14T19:52:42.728Z,101725.30
2019-02-14T19:55:13.229Z,101723.87
2019-02-14T19:57:43.689Z,101724.11
2019-02-14T20:00:15.752Z,101727.44
2019-02-14T20:02:46.255Z,101727.74
2019-02-14T20:05:16.922Z,101728.30
2019-02-14T20:07:47.398Z,101733.77
2019-02-14T20:10:18.016Z,101730.81
2019-02-14T20:12:48.496Z,101731.20
2019-02-14T20:15:19.801Z,101729.00
2019-02-14T20:17:50.613Z,101728.75
2019-02-14T20:20:21.400Z,101729.05
2019-02-14T20:22:51.829Z,101728.07
2019-02-14T20:25:23.368Z,101729.20
2019-02-14T20:27:57.272Z,101730.62
2019-02-14T20:30:28.482Z,101728.70
2019-02-14T20:33:04.727Z,101733.03
2019-02-14T20:35:31.101Z,101734.20
2019-02-14T20:38:02.159Z,101733.17
2019-02-14T20:40:33.267Z,101734.75
2019-02-14T20:43:05.902Z,101731.13
2019-02-14T20:45:54.081Z,101735.56
2019-02-14T20:48:24.589Z,101733.55
2019-02-14T20:50:55.028Z,101726.78
2019-02-14T20:53:25.473Z,101731.41
2019-02-14T20:55:56.017Z,101729.42
2019-02-14T20:58:26.498Z,101733.95
2019-02-14T21:00:57.217Z,101738.35
2019-02-14T21:03:30.464Z,101734.58
2019-02-14T21:06:03.048Z,101732.78
2019-02-14T21:08:33.498Z,101736.34
2019-02-14T21:11:03.992Z,101738.39
2019-02-14T21:13:34.793Z,101735.13
2019-02-14T21:16:06.175Z,101733.66
2019-02-14T21:18:37.350Z,101739.15
2019-02-14T21:21:08.084Z,101739.45
2019-02-14T21:23:39.777Z,101744.59
2019-02-14T21:26:11.890Z,101738.27
2019-02-14T21:28:43.414Z,101735.48
2019-02-14T21:31:13.886Z,101733.40
2019-02-14T21:33:44.682Z,101732.47
2019-02-14T21:36:15.923Z,101731.54
2019-02-14T21:38:46.344Z,101731.94
2019-02-14T21:41:16.831Z,101725.53
2019-02-14T21:43:47.286Z,101723.72
2019-02-14T21:46:17.810Z,101723.27
2019-02-14T21:48:48.613Z,101723.41
2019-02-14T21:51:19.035Z,101725.13
2019-02-14T21:53:49.912Z,101724.87
2019-02-14T21:56:20.378Z,101722.13
2019-02-14T21:58:51.302Z,101721.68
2019-02-14T22:01:24.753Z,101721.33
2019-02-14T22:03:55.743Z,101719.20
2019-02-14T22:06:26.175Z,101722.16
2019-02-14T22:08:56.666Z,101719.36
2019-02-14T22:11:27.121Z,101715.38
2019-02-14T22:13:57.893Z,101710.08
2019-02-14T22:16:28.341Z,101711.44
2019-02-14T22:18:59.121Z,101713.03
2019-02-14T22:21:29.586Z,101714.05
2019-02-14T22:24:00.174Z,101708.97
2019-02-14T22:26:30.656Z,101713.75
2019-02-14T22:29:01.299Z,101714.05
2019-02-14T22:31:31.741Z,101706.95
2019-02-14T22:34:02.284Z,101710.22
2019-02-14T22:36:33.050Z,101711.19
2019-02-14T22:39:05.119Z,101706.41
2019-02-14T22:41:35.549Z,101707.42
2019-02-14T22:44:06.754Z,101705.48
2019-02-14T22:46:37.212Z,101703.22
2019-02-14T22:49:07.801Z,101707.26
2019-02-14T22:51:38.569Z,101702.34
2019-02-14T22:54:09.009Z,101708.59
2019-02-14T22:56:39.451Z,101711.45
2019-02-14T22:59:10.181Z,101703.94
2019-02-14T23:01:41.285Z,101707.74
2019-02-14T23:04:12.241Z,101715.27
2019-02-14T23:06:43.015Z,101715.00
2019-02-14T23:09:14.044Z,101718.84
2019-02-14T23:11:44.902Z,101717.22
2019-02-14T23:14:15.331Z,101717.22
2019-02-14T23:16:45.850Z,101716.12
2019-02-14T23:19:16.573Z,101710.59
2019-02-14T23:21:46.992Z,101714.13
2019-02-14T23:24:17.459Z,101716.38
2019-02-14T23:26:48.294Z,101718.72
2019-02-14T23:29:19.139Z,101717.17
2019-02-14T23:31:49.567Z,101716.12
2019-02-14T23:34:20.002Z,101719.08
2019-02-14T23:36:50.460Z,101715.67
2019-02-14T23:39:20.893Z,101708.69
2019-02-14T23:41:51.372Z,101718.42
2019-02-14T23:44:21.808Z,101714.44
2019-02-14T23:46:52.247Z,101717.83
2019-02-14T23:49:22.709Z,101722.20
2019-02-14T23:51:53.141Z,101725.08
2019-02-14T23:54:23.632Z,101721.58
2019-02-14T23:56:54.069Z,101718.75
2019-02-14T23:59:24.507Z,101722.66
